sensor_id;sensor_type;location;lat;lon;timestamp;P1;durP1;ratioP1;P2;durP2;ratioP2
3054;SDS011;1537;52.018;8.542;2023-07-30T00:00:56;9.43;;;5.57;;
3054;SDS011;1537;52.018;8.542;2023-07-30T00:04:20;7.90;;;5.17;;
3054;SDS011;1537;52.018;8.542;2023-07-30T00:07:44;9.33;;;5.70;;
3054;SDS011;1537;52.018;8.542;2023-07-30T00:11:09;8.03;;;6.40;;
3054;SDS011;1537;52.018;8.542;2023-07-30T00:14:33;8.90;;;5.70;;
3054;SDS011;1537;52.018;8.542;2023-07-30T00:17:57;9.20;;;5.20;;
3054;SDS011;1537;52.018;8.542;2023-07-30T00:21:21;9.80;;;6.23;;
3054;SDS011;1537;52.018;8.542;2023-07-30T00:24:45;7.90;;;5.80;;
3054;SDS011;1537;52.018;8.542;2023-07-30T00:28:09;7.60;;;5.30;;
3054;SDS011;1537;52.018;8.542;2023-07-30T00:31:33;7.73;;;6.60;;
3054;SDS011;1537;52.018;8.542;2023-07-30T00:34:57;7.97;;;6.23;;
3054;SDS011;1537;52.018;8.542;2023-07-30T00:38:21;9.53;;;5.23;;
3054;SDS011;1537;52.018;8.542;2023-07-30T00:41:45;8.47;;;5.73;;
3054;SDS011;1537;52.018;8.542;2023-07-30T00:45:11;9.37;;;6.33;;
3054;SDS011;1537;52.018;8.542;2023-07-30T00:48:34;9.20;;;5.67;;
3054;SDS011;1537;52.018;8.542;2023-07-30T00:51:59;9.23;;;6.30;;
3054;SDS011;1537;52.018;8.542;2023-07-30T00:55:23;18.23;;;6.67;;
3054;SDS011;1537;52.018;8.542;2023-07-30T00:58:47;12.23;;;6.20;;
3054;SDS011;1537;52.018;8.542;2023-07-30T01:02:13;9.97;;;6.37;;
3054;SDS011;1537;52.018;8.542;2023-07-30T01:05:37;10.57;;;5.80;;
3054;SDS011;1537;52.018;8.542;2023-07-30T01:09:01;8.93;;;6.70;;
3054;SDS011;1537;52.018;8.542;2023-07-30T01:12:25;9.20;;;6.03;;
3054;SDS011;1537;52.018;8.542;2023-07-30T01:15:51;7.30;;;5.33;;
3054;SDS011;1537;52.018;8.542;2023-07-30T01:19:16;8.57;;;5.70;;
3054;SDS011;1537;52.018;8.542;2023-07-30T01:22:41;8.40;;;4.77;;
3054;SDS011;1537;52.018;8.542;2023-07-30T01:26:07;11.60;;;6.57;;
3054;SDS011;1537;52.018;8.542;2023-07-30T01:29:36;8.40;;;5.40;;
3054;SDS011;1537;52.018;8.542;2023-07-30T01:33:05;12.23;;;5.93;;
3054;SDS011;1537;52.018;8.542;2023-07-30T01:36:29;8.87;;;5.43;;
3054;SDS011;1537;52.018;8.542;2023-07-30T01:39:56;9.10;;;5.90;;
3054;SDS011;1537;52.018;8.542;2023-07-30T01:43:20;9.60;;;5.17;;
3054;SDS011;1537;52.018;8.542;2023-07-30T01:46:44;7.90;;;5.53;;
3054;SDS011;1537;52.018;8.542;2023-07-30T01:50:08;8.90;;;5.93;;
3054;SDS011;1537;52.018;8.542;2023-07-30T01:53:32;18.00;;;6.97;;
3054;SDS011;1537;52.018;8.542;2023-07-30T01:56:57;16.40;;;5.73;;
3054;SDS011;1537;52.018;8.542;2023-07-30T02:00:22;9.10;;;5.73;;
3054;SDS011;1537;52.018;8.542;2023-07-30T02:03:58;8.90;;;5.73;;
3054;SDS011;1537;52.018;8.542;2023-07-30T02:07:22;7.93;;;5.70;;
3054;SDS011;1537;52.018;8.542;2023-07-30T02:10:53;13.50;;;6.90;;
3054;SDS011;1537;52.018;8.542;2023-07-30T02:14:19;9.90;;;5.90;;
3054;SDS011;1537;52.018;8.542;2023-07-30T02:17:43;8.97;;;5.33;;
3054;SDS011;1537;52.018;8.542;2023-07-30T02:21:07;8.80;;;5.97;;
3054;SDS011;1537;52.018;8.542;2023-07-30T02:24:31;12.33;;;6.37;;
3054;SDS011;1537;52.018;8.542;2023-07-30T02:27:55;10.70;;;7.23;;
3054;SDS011;1537;52.018;8.542;2023-07-30T02:31:20;11.33;;;6.73;;
3054;SDS011;1537;52.018;8.542;2023-07-30T02:34:44;10.77;;;7.03;;
3054;SDS011;1537;52.018;8.542;2023-07-30T02:38:07;12.90;;;6.77;;
3054;SDS011;1537;52.018;8.542;2023-07-30T02:41:31;12.83;;;6.57;;
3054;SDS011;1537;52.018;8.542;2023-07-30T02:44:54;15.40;;;8.57;;
3054;SDS011;1537;52.018;8.542;2023-07-30T02:48:20;11.93;;;7.07;;
3054;SDS011;1537;52.018;8.542;2023-07-30T02:51:44;12.37;;;7.43;;
3054;SDS011;1537;52.018;8.542;2023-07-30T02:55:10;10.27;;;7.20;;
3054;SDS011;1537;52.018;8.542;2023-07-30T02:58:34;14.23;;;8.73;;
3054;SDS011;1537;52.018;8.542;2023-07-30T03:01:57;14.87;;;8.70;;
3054;SDS011;1537;52.018;8.542;2023-07-30T03:05:22;11.67;;;8.90;;
3054;SDS011;1537;52.018;8.542;2023-07-30T03:08:46;10.87;;;7.40;;
3054;SDS011;1537;52.018;8.542;2023-07-30T03:12:10;11.13;;;7.20;;
3054;SDS011;1537;52.018;8.542;2023-07-30T03:15:33;12.20;;;8.00;;
3054;SDS011;1537;52.018;8.542;2023-07-30T03:18:57;12.23;;;7.27;;
3054;SDS011;1537;52.018;8.542;2023-07-30T03:22:22;12.07;;;7.90;;
3054;SDS011;1537;52.018;8.542;2023-07-30T03:25:46;10.83;;;7.83;;
3054;SDS011;1537;52.018;8.542;2023-07-30T03:29:09;15.40;;;7.33;;
3054;SDS011;1537;52.018;8.542;2023-07-30T03:32:33;11.73;;;6.57;;
3054;SDS011;1537;52.018;8.542;2023-07-30T03:35:56;9.90;;;7.03;;
3054;SDS011;1537;52.018;8.542;2023-07-30T03:39:21;10.43;;;6.13;;
3054;SDS011;1537;52.018;8.542;2023-07-30T03:42:45;8.70;;;5.53;;
3054;SDS011;1537;52.018;8.542;2023-07-30T03:46:09;10.47;;;7.40;;
3054;SDS011;1537;52.018;8.542;2023-07-30T03:49:32;10.50;;;6.40;;
3054;SDS011;1537;52.018;8.542;2023-07-30T03:52:56;10.60;;;6.50;;
3054;SDS011;1537;52.018;8.542;2023-07-30T03:56:21;10.80;;;6.40;;
3054;SDS011;1537;52.018;8.542;2023-07-30T03:59:45;12.13;;;5.60;;
3054;SDS011;1537;52.018;8.542;2023-07-30T04:03:09;13.00;;;6.57;;
3054;SDS011;1537;52.018;8.542;2023-07-30T04:06:34;8.10;;;5.07;;
3054;SDS011;1537;52.018;8.542;2023-07-30T04:09:57;12.13;;;5.63;;
3054;SDS011;1537;52.018;8.542;2023-07-30T04:13:22;10.87;;;4.90;;
3054;SDS011;1537;52.018;8.542;2023-07-30T04:16:46;11.60;;;5.60;;
3054;SDS011;1537;52.018;8.542;2023-07-30T04:20:11;17.27;;;6.93;;
3054;SDS011;1537;52.018;8.542;2023-07-30T04:23:34;10.00;;;5.27;;
3054;SDS011;1537;52.018;8.542;2023-07-30T04:27:00;8.33;;;5.23;;
3054;SDS011;1537;52.018;8.542;2023-07-30T04:30:26;10.73;;;5.00;;
3054;SDS011;1537;52.018;8.542;2023-07-30T04:33:50;15.20;;;5.60;;
3054;SDS011;1537;52.018;8.542;2023-07-30T04:37:13;8.73;;;4.37;;
3054;SDS011;1537;52.018;8.542;2023-07-30T04:40:38;10.07;;;4.77;;
3054;SDS011;1537;52.018;8.542;2023-07-30T04:44:02;13.43;;;5.30;;
3054;SDS011;1537;52.018;8.542;2023-07-30T04:47:28;11.53;;;5.80;;
3054;SDS011;1537;52.018;8.542;2023-07-30T04:50:52;11.53;;;6.07;;
3054;SDS011;1537;52.018;8.542;2023-07-30T04:54:15;9.60;;;4.80;;
3054;SDS011;1537;52.018;8.542;2023-07-30T04:57:39;14.10;;;5.47;;
3054;SDS011;1537;52.018;8.542;2023-07-30T05:01:03;8.07;;;4.03;;
3054;SDS011;1537;52.018;8.542;2023-07-30T05:04:28;12.00;;;5.10;;
3054;SDS011;1537;52.018;8.542;2023-07-30T05:07:51;8.43;;;4.13;;
3054;SDS011;1537;52.018;8.542;2023-07-30T05:11:15;9.13;;;4.60;;
3054;SDS011;1537;52.018;8.542;2023-07-30T05:14:39;13.60;;;4.30;;
3054;SDS011;1537;52.018;8.542;2023-07-30T05:18:02;10.90;;;4.27;;
3054;SDS011;1537;52.018;8.542;2023-07-30T05:21:27;7.90;;;3.73;;
3054;SDS011;1537;52.018;8.542;2023-07-30T05:24:51;10.53;;;6.30;;
3054;SDS011;1537;52.018;8.542;2023-07-30T05:28:14;9.87;;;5.07;;
3054;SDS011;1537;52.018;8.542;2023-07-30T05:31:38;10.63;;;4.17;;
3054;SDS011;1537;52.018;8.542;2023-07-30T05:35:02;9.80;;;4.90;;
3054;SDS011;1537;52.018;8.542;2023-07-30T05:38:28;8.77;;;4.60;;
3054;SDS011;1537;52.018;8.542;2023-07-30T05:41:51;8.70;;;5.10;;
3054;SDS011;1537;52.018;8.542;2023-07-30T05:45:15;11.10;;;4.93;;
3054;SDS011;1537;52.018;8.542;2023-07-30T05:48:40;6.87;;;4.90;;
3054;SDS011;1537;52.018;8.542;2023-07-30T05:52:04;10.40;;;5.10;;
3054;SDS011;1537;52.018;8.542;2023-07-30T05:55:30;11.63;;;5.60;;
3054;SDS011;1537;52.018;8.542;2023-07-30T05:58:53;10.23;;;5.53;;
3054;SDS011;1537;52.018;8.542;2023-07-30T06:02:17;14.73;;;4.80;;
3054;SDS011;1537;52.018;8.542;2023-07-30T06:05:41;9.60;;;5.00;;
3054;SDS011;1537;52.018;8.542;2023-07-30T06:09:05;9.53;;;4.90;;
3054;SDS011;1537;52.018;8.542;2023-07-30T06:12:30;8.40;;;5.13;;
3054;SDS011;1537;52.018;8.542;2023-07-30T06:15:53;13.83;;;5.57;;
3054;SDS011;1537;52.018;8.542;2023-07-30T06:19:17;10.30;;;5.77;;
3054;SDS011;1537;52.018;8.542;2023-07-30T06:22:41;7.77;;;5.40;;
3054;SDS011;1537;52.018;8.542;2023-07-30T06:26:04;8.40;;;5.60;;
3054;SDS011;1537;52.018;8.542;2023-07-30T06:29:29;10.00;;;6.13;;
3054;SDS011;1537;52.018;8.542;2023-07-30T06:32:53;12.50;;;6.57;;
3054;SDS011;1537;52.018;8.542;2023-07-30T06:36:17;9.93;;;6.20;;
3054;SDS011;1537;52.018;8.542;2023-07-30T06:39:40;11.83;;;7.00;;
3054;SDS011;1537;52.018;8.542;2023-07-30T06:43:04;16.47;;;7.80;;
3054;SDS011;1537;52.018;8.542;2023-07-30T06:46:29;10.30;;;6.87;;
3054;SDS011;1537;52.018;8.542;2023-07-30T06:49:52;11.53;;;6.60;;
3054;SDS011;1537;52.018;8.542;2023-07-30T06:53:16;11.23;;;7.10;;
3054;SDS011;1537;52.018;8.542;2023-07-30T06:56:40;12.37;;;8.57;;
3054;SDS011;1537;52.018;8.542;2023-07-30T07:00:03;15.97;;;7.90;;
3054;SDS011;1537;52.018;8.542;2023-07-30T07:03:29;11.90;;;7.80;;
3054;SDS011;1537;52.018;8.542;2023-07-30T07:06:53;11.00;;;8.07;;
3054;SDS011;1537;52.018;8.542;2023-07-30T07:10:17;13.40;;;8.80;;
3054;SDS011;1537;52.018;8.542;2023-07-30T07:13:40;11.47;;;7.40;;
3054;SDS011;1537;52.018;8.542;2023-07-30T07:17:04;16.43;;;10.50;;
3054;SDS011;1537;52.018;8.542;2023-07-30T07:20:29;14.57;;;11.23;;
3054;SDS011;1537;52.018;8.542;2023-07-30T07:23:53;15.20;;;11.90;;
3054;SDS011;1537;52.018;8.542;2023-07-30T07:27:17;19.87;;;11.43;;
3054;SDS011;1537;52.018;8.542;2023-07-30T07:30:42;22.77;;;12.50;;
3054;SDS011;1537;52.018;8.542;2023-07-30T07:34:06;16.67;;;12.50;;
3054;SDS011;1537;52.018;8.542;2023-07-30T07:37:32;16.70;;;12.63;;
3054;SDS011;1537;52.018;8.542;2023-07-30T07:40:56;13.47;;;10.73;;
3054;SDS011;1537;52.018;8.542;2023-07-30T07:44:20;18.27;;;12.50;;
3054;SDS011;1537;52.018;8.542;2023-07-30T07:47:43;25.00;;;13.23;;
3054;SDS011;1537;52.018;8.542;2023-07-30T07:51:08;19.73;;;14.97;;
3054;SDS011;1537;52.018;8.542;2023-07-30T07:54:34;18.50;;;14.07;;
3054;SDS011;1537;52.018;8.542;2023-07-30T07:57:57;18.43;;;15.43;;
3054;SDS011;1537;52.018;8.542;2023-07-30T08:01:21;20.50;;;14.43;;
3054;SDS011;1537;52.018;8.542;2023-07-30T08:04:45;22.37;;;17.67;;
3054;SDS011;1537;52.018;8.542;2023-07-30T08:08:09;23.80;;;20.07;;
3054;SDS011;1537;52.018;8.542;2023-07-30T08:11:35;21.37;;;17.70;;
3054;SDS011;1537;52.018;8.542;2023-07-30T08:14:59;29.10;;;20.53;;
3054;SDS011;1537;52.018;8.542;2023-07-30T08:18:24;24.77;;;21.80;;
3054;SDS011;1537;52.018;8.542;2023-07-30T08:21:48;25.47;;;20.30;;
3054;SDS011;1537;52.018;8.542;2023-07-30T08:25:12;31.33;;;19.43;;
3054;SDS011;1537;52.018;8.542;2023-07-30T08:28:37;22.70;;;20.20;;
3054;SDS011;1537;52.018;8.542;2023-07-30T08:32:01;28.80;;;21.90;;
3054;SDS011;1537;52.018;8.542;2023-07-30T08:35:25;26.30;;;21.90;;
3054;SDS011;1537;52.018;8.542;2023-07-30T08:38:49;29.00;;;20.10;;
3054;SDS011;1537;52.018;8.542;2023-07-30T08:42:13;20.70;;;18.10;;
3054;SDS011;1537;52.018;8.542;2023-07-30T08:45:38;27.77;;;20.67;;
3054;SDS011;1537;52.018;8.542;2023-07-30T08:49:04;25.57;;;20.17;;
3054;SDS011;1537;52.018;8.542;2023-07-30T08:52:28;22.70;;;19.80;;
3054;SDS011;1537;52.018;8.542;2023-07-30T08:55:53;30.80;;;21.07;;
3054;SDS011;1537;52.018;8.542;2023-07-30T08:59:17;27.50;;;19.93;;
3054;SDS011;1537;52.018;8.542;2023-07-30T09:02:47;26.27;;;19.53;;
3054;SDS011;1537;52.018;8.542;2023-07-30T09:06:13;27.10;;;20.37;;
3054;SDS011;1537;52.018;8.542;2023-07-30T09:09:37;25.30;;;19.30;;
3054;SDS011;1537;52.018;8.542;2023-07-30T09:13:01;23.80;;;19.57;;
3054;SDS011;1537;52.018;8.542;2023-07-30T09:16:26;26.67;;;18.80;;
3054;SDS011;1537;52.018;8.542;2023-07-30T09:19:51;28.17;;;20.00;;
3054;SDS011;1537;52.018;8.542;2023-07-30T09:23:15;28.23;;;18.93;;
3054;SDS011;1537;52.018;8.542;2023-07-30T09:26:41;24.33;;;15.57;;
3054;SDS011;1537;52.018;8.542;2023-07-30T09:30:06;22.63;;;16.73;;
3054;SDS011;1537;52.018;8.542;2023-07-30T09:33:30;22.30;;;15.47;;
3054;SDS011;1537;52.018;8.542;2023-07-30T09:36:56;30.30;;;15.93;;
3054;SDS011;1537;52.018;8.542;2023-07-30T09:40:19;22.40;;;14.80;;
3054;SDS011;1537;52.018;8.542;2023-07-30T09:43:43;27.73;;;16.00;;
3054;SDS011;1537;52.018;8.542;2023-07-30T09:47:08;25.23;;;14.10;;
3054;SDS011;1537;52.018;8.542;2023-07-30T09:50:33;23.97;;;15.37;;
3054;SDS011;1537;52.018;8.542;2023-07-30T09:53:58;22.23;;;14.70;;
3054;SDS011;1537;52.018;8.542;2023-07-30T09:57:22;21.93;;;16.30;;
3054;SDS011;1537;52.018;8.542;2023-07-30T10:00:45;24.17;;;16.70;;
3054;SDS011;1537;52.018;8.542;2023-07-30T10:04:11;21.57;;;16.23;;
3054;SDS011;1537;52.018;8.542;2023-07-30T10:07:35;22.60;;;17.97;;
3054;SDS011;1537;52.018;8.542;2023-07-30T10:11:03;22.37;;;19.20;;
3054;SDS011;1537;52.018;8.542;2023-07-30T10:14:30;24.73;;;20.73;;
3054;SDS011;1537;52.018;8.542;2023-07-30T10:17:55;25.60;;;20.20;;
3054;SDS011;1537;52.018;8.542;2023-07-30T10:21:24;24.50;;;17.90;;
3054;SDS011;1537;52.018;8.542;2023-07-30T10:24:58;21.37;;;16.47;;
3054;SDS011;1537;52.018;8.542;2023-07-30T10:28:27;20.30;;;14.67;;
3054;SDS011;1537;52.018;8.542;2023-07-30T10:31:55;16.53;;;13.03;;
3054;SDS011;1537;52.018;8.542;2023-07-30T10:35:34;15.17;;;13.47;;
3054;SDS011;1537;52.018;8.542;2023-07-30T10:39:10;21.93;;;15.27;;
3054;SDS011;1537;52.018;8.542;2023-07-30T10:42:37;16.53;;;14.30;;
3054;SDS011;1537;52.018;8.542;2023-07-30T10:46:02;18.47;;;12.37;;
3054;SDS011;1537;52.018;8.542;2023-07-30T10:49:26;12.87;;;10.90;;
3054;SDS011;1537;52.018;8.542;2023-07-30T10:52:50;13.90;;;10.80;;
3054;SDS011;1537;52.018;8.542;2023-07-30T10:56:15;13.37;;;10.20;;
3054;SDS011;1537;52.018;8.542;2023-07-30T10:59:40;16.23;;;10.27;;
3054;SDS011;1537;52.018;8.542;2023-07-30T11:03:06;15.13;;;10.60;;
3054;SDS011;1537;52.018;8.542;2023-07-30T11:06:30;12.40;;;9.83;;
3054;SDS011;1537;52.018;8.542;2023-07-30T11:09:59;15.30;;;10.60;;
3054;SDS011;1537;52.018;8.542;2023-07-30T11:13:24;13.17;;;9.87;;
3054;SDS011;1537;52.018;8.542;2023-07-30T11:16:48;12.30;;;9.67;;
3054;SDS011;1537;52.018;8.542;2023-07-30T11:20:24;14.70;;;9.70;;
3054;SDS011;1537;52.018;8.542;2023-07-30T11:23:50;13.83;;;8.60;;
3054;SDS011;1537;52.018;8.542;2023-07-30T11:27:14;10.93;;;8.33;;
3054;SDS011;1537;52.018;8.542;2023-07-30T11:30:37;11.43;;;7.57;;
3054;SDS011;1537;52.018;8.542;2023-07-30T11:34:01;13.33;;;7.37;;
3054;SDS011;1537;52.018;8.542;2023-07-30T11:37:26;9.97;;;7.60;;
3054;SDS011;1537;52.018;8.542;2023-07-30T11:40:50;9.10;;;7.10;;
3054;SDS011;1537;52.018;8.542;2023-07-30T11:44:28;9.70;;;6.67;;
3054;SDS011;1537;52.018;8.542;2023-07-30T11:47:53;8.40;;;6.07;;
3054;SDS011;1537;52.018;8.542;2023-07-30T11:51:20;11.23;;;6.20;;
3054;SDS011;1537;52.018;8.542;2023-07-30T11:54:47;10.50;;;6.20;;
3054;SDS011;1537;52.018;8.542;2023-07-30T11:58:11;8.60;;;5.53;;
3054;SDS011;1537;52.018;8.542;2023-07-30T12:01:35;11.27;;;6.03;;
3054;SDS011;1537;52.018;8.542;2023-07-30T12:05:00;8.93;;;5.57;;
3054;SDS011;1537;52.018;8.542;2023-07-30T12:08:33;10.00;;;5.90;;
3054;SDS011;1537;52.018;8.542;2023-07-30T12:11:59;12.83;;;6.20;;
3054;SDS011;1537;52.018;8.542;2023-07-30T12:15:24;11.43;;;5.97;;
3054;SDS011;1537;52.018;8.542;2023-07-30T12:18:47;9.80;;;6.27;;
3054;SDS011;1537;52.018;8.542;2023-07-30T12:22:11;15.83;;;5.30;;
3054;SDS011;1537;52.018;8.542;2023-07-30T12:25:34;23.23;;;7.10;;
3054;SDS011;1537;52.018;8.542;2023-07-30T12:28:59;9.67;;;5.37;;
3054;SDS011;1537;52.018;8.542;2023-07-30T12:32:23;8.70;;;5.60;;
3054;SDS011;1537;52.018;8.542;2023-07-30T12:35:50;9.30;;;5.20;;
3054;SDS011;1537;52.018;8.542;2023-07-30T12:39:14;8.97;;;4.80;;
3054;SDS011;1537;52.018;8.542;2023-07-30T12:42:38;13.27;;;4.83;;
3054;SDS011;1537;52.018;8.542;2023-07-30T12:46:03;11.53;;;5.43;;
3054;SDS011;1537;52.018;8.542;2023-07-30T12:49:27;9.20;;;4.83;;
3054;SDS011;1537;52.018;8.542;2023-07-30T12:52:50;6.80;;;4.80;;
3054;SDS011;1537;52.018;8.542;2023-07-30T12:56:14;9.20;;;4.80;;
3054;SDS011;1537;52.018;8.542;2023-07-30T12:59:38;10.57;;;5.07;;
3054;SDS011;1537;52.018;8.542;2023-07-30T13:03:03;8.23;;;4.63;;
3054;SDS011;1537;52.018;8.542;2023-07-30T13:06:28;11.00;;;4.27;;
3054;SDS011;1537;52.018;8.542;2023-07-30T13:10:01;9.30;;;5.17;;
3054;SDS011;1537;52.018;8.542;2023-07-30T13:13:26;8.90;;;4.50;;
3054;SDS011;1537;52.018;8.542;2023-07-30T13:16:49;8.47;;;4.60;;
3054;SDS011;1537;52.018;8.542;2023-07-30T13:20:14;7.87;;;4.03;;
3054;SDS011;1537;52.018;8.542;2023-07-30T13:23:41;8.90;;;3.80;;
3054;SDS011;1537;52.018;8.542;2023-07-30T13:27:04;11.27;;;4.00;;
3054;SDS011;1537;52.018;8.542;2023-07-30T13:30:28;9.90;;;4.80;;
3054;SDS011;1537;52.018;8.542;2023-07-30T13:33:52;10.60;;;4.30;;
3054;SDS011;1537;52.018;8.542;2023-07-30T13:37:17;13.40;;;5.03;;
3054;SDS011;1537;52.018;8.542;2023-07-30T13:40:41;9.00;;;4.93;;
3054;SDS011;1537;52.018;8.542;2023-07-30T13:44:04;17.10;;;6.70;;
3054;SDS011;1537;52.018;8.542;2023-07-30T13:47:28;8.50;;;4.70;;
3054;SDS011;1537;52.018;8.542;2023-07-30T13:50:52;9.67;;;4.73;;
3054;SDS011;1537;52.018;8.542;2023-07-30T13:54:17;10.63;;;4.10;;
3054;SDS011;1537;52.018;8.542;2023-07-30T13:57:41;9.03;;;3.50;;
3054;SDS011;1537;52.018;8.542;2023-07-30T14:01:05;7.70;;;3.60;;
3054;SDS011;1537;52.018;8.542;2023-07-30T14:04:31;6.40;;;3.40;;
3054;SDS011;1537;52.018;8.542;2023-07-30T14:07:54;7.80;;;3.27;;
3054;SDS011;1537;52.018;8.542;2023-07-30T14:11:20;8.30;;;3.43;;
3054;SDS011;1537;52.018;8.542;2023-07-30T14:14:44;5.63;;;3.13;;
3054;SDS011;1537;52.018;8.542;2023-07-30T14:18:08;9.80;;;4.10;;
3054;SDS011;1537;52.018;8.542;2023-07-30T14:21:32;7.30;;;3.40;;
3054;SDS011;1537;52.018;8.542;2023-07-30T14:24:57;6.53;;;3.67;;
3054;SDS011;1537;52.018;8.542;2023-07-30T14:28:22;10.50;;;3.63;;
3054;SDS011;1537;52.018;8.542;2023-07-30T14:31:45;7.43;;;3.77;;
3054;SDS011;1537;52.018;8.542;2023-07-30T14:35:09;5.93;;;3.70;;
3054;SDS011;1537;52.018;8.542;2023-07-30T14:38:33;5.43;;;3.53;;
3054;SDS011;1537;52.018;8.542;2023-07-30T14:41:56;7.03;;;3.67;;
3054;SDS011;1537;52.018;8.542;2023-07-30T14:45:21;6.20;;;3.80;;
3054;SDS011;1537;52.018;8.542;2023-07-30T14:48:45;10.77;;;4.67;;
3054;SDS011;1537;52.018;8.542;2023-07-30T14:52:09;6.93;;;3.70;;
3054;SDS011;1537;52.018;8.542;2023-07-30T14:55:32;6.70;;;3.90;;
3054;SDS011;1537;52.018;8.542;2023-07-30T14:58:56;6.93;;;3.53;;
3054;SDS011;1537;52.018;8.542;2023-07-30T15:02:21;5.53;;;3.27;;
3054;SDS011;1537;52.018;8.542;2023-07-30T15:05:45;7.00;;;3.70;;
3054;SDS011;1537;52.018;8.542;2023-07-30T15:09:08;9.47;;;3.77;;
3054;SDS011;1537;52.018;8.542;2023-07-30T15:12:32;7.43;;;4.20;;
3054;SDS011;1537;52.018;8.542;2023-07-30T15:15:56;6.23;;;3.50;;
3054;SDS011;1537;52.018;8.542;2023-07-30T15:19:21;8.30;;;3.20;;
3054;SDS011;1537;52.018;8.542;2023-07-30T15:22:44;5.60;;;3.53;;
3054;SDS011;1537;52.018;8.542;2023-07-30T15:26:08;9.70;;;3.53;;
3054;SDS011;1537;52.018;8.542;2023-07-30T15:29:31;6.67;;;3.17;;
3054;SDS011;1537;52.018;8.542;2023-07-30T15:32:55;6.23;;;3.47;;
3054;SDS011;1537;52.018;8.542;2023-07-30T15:36:21;6.30;;;3.60;;
3054;SDS011;1537;52.018;8.542;2023-07-30T15:39:45;9.03;;;4.10;;
3054;SDS011;1537;52.018;8.542;2023-07-30T15:43:08;9.03;;;3.90;;
3054;SDS011;1537;52.018;8.542;2023-07-30T15:46:33;8.50;;;3.70;;
3054;SDS011;1537;52.018;8.542;2023-07-30T15:49:57;7.20;;;3.53;;
3054;SDS011;1537;52.018;8.542;2023-07-30T15:53:23;9.50;;;3.43;;
3054;SDS011;1537;52.018;8.542;2023-07-30T15:56:46;6.77;;;3.70;;
3054;SDS011;1537;52.018;8.542;2023-07-30T16:00:10;6.50;;;3.70;;
3054;SDS011;1537;52.018;8.542;2023-07-30T16:03:36;11.10;;;3.50;;
3054;SDS011;1537;52.018;8.542;2023-07-30T16:07:00;7.23;;;3.20;;
3054;SDS011;1537;52.018;8.542;2023-07-30T16:10:27;7.83;;;3.27;;
3054;SDS011;1537;52.018;8.542;2023-07-30T16:13:50;7.27;;;3.63;;
3054;SDS011;1537;52.018;8.542;2023-07-30T16:17:14;15.13;;;4.67;;
3054;SDS011;1537;52.018;8.542;2023-07-30T16:20:38;6.57;;;3.40;;
3054;SDS011;1537;52.018;8.542;2023-07-30T16:24:02;6.30;;;3.90;;
3054;SDS011;1537;52.018;8.542;2023-07-30T16:27:27;7.23;;;3.73;;
3054;SDS011;1537;52.018;8.542;2023-07-30T16:30:51;8.60;;;3.83;;
3054;SDS011;1537;52.018;8.542;2023-07-30T16:34:14;9.93;;;4.20;;
3054;SDS011;1537;52.018;8.542;2023-07-30T16:37:38;6.20;;;3.77;;
3054;SDS011;1537;52.018;8.542;2023-07-30T16:41:02;7.87;;;4.37;;
3054;SDS011;1537;52.018;8.542;2023-07-30T16:44:27;7.47;;;4.10;;
3054;SDS011;1537;52.018;8.542;2023-07-30T16:47:50;6.10;;;3.50;;
3054;SDS011;1537;52.018;8.542;2023-07-30T16:51:14;7.13;;;3.80;;
3054;SDS011;1537;52.018;8.542;2023-07-30T16:54:38;6.50;;;3.30;;
3054;SDS011;1537;52.018;8.542;2023-07-30T16:58:02;7.90;;;3.70;;
3054;SDS011;1537;52.018;8.542;2023-07-30T17:01:27;7.97;;;5.20;;
3054;SDS011;1537;52.018;8.542;2023-07-30T17:04:50;7.27;;;3.20;;
3054;SDS011;1537;52.018;8.542;2023-07-30T17:08:14;6.53;;;3.23;;
3054;SDS011;1537;52.018;8.542;2023-07-30T17:11:38;9.60;;;4.17;;
3054;SDS011;1537;52.018;8.542;2023-07-30T17:15:04;8.57;;;3.67;;
3054;SDS011;1537;52.018;8.542;2023-07-30T17:18:30;7.17;;;4.10;;
3054;SDS011;1537;52.018;8.542;2023-07-30T17:21:53;7.27;;;4.00;;
3054;SDS011;1537;52.018;8.542;2023-07-30T17:25:17;8.40;;;3.23;;
3054;SDS011;1537;52.018;8.542;2023-07-30T17:28:41;6.50;;;3.50;;
3054;SDS011;1537;52.018;8.542;2023-07-30T17:32:04;6.40;;;4.03;;
3054;SDS011;1537;52.018;8.542;2023-07-30T17:35:30;7.40;;;3.87;;
3054;SDS011;1537;52.018;8.542;2023-07-30T17:38:54;7.40;;;3.80;;
3054;SDS011;1537;52.018;8.542;2023-07-30T17:42:18;8.77;;;4.10;;
3054;SDS011;1537;52.018;8.542;2023-07-30T17:45:41;5.80;;;3.60;;
3054;SDS011;1537;52.018;8.542;2023-07-30T17:49:05;10.97;;;4.20;;
3054;SDS011;1537;52.018;8.542;2023-07-30T17:52:30;9.07;;;3.90;;
3054;SDS011;1537;52.018;8.542;2023-07-30T17:55:54;6.60;;;3.70;;
3054;SDS011;1537;52.018;8.542;2023-07-30T17:59:17;8.43;;;4.23;;
3054;SDS011;1537;52.018;8.542;2023-07-30T18:02:42;7.00;;;3.97;;
3054;SDS011;1537;52.018;8.542;2023-07-30T18:06:08;10.57;;;4.40;;
3054;SDS011;1537;52.018;8.542;2023-07-30T18:09:32;9.30;;;4.40;;
3054;SDS011;1537;52.018;8.542;2023-07-30T18:12:56;6.10;;;3.97;;
3054;SDS011;1537;52.018;8.542;2023-07-30T18:16:20;8.47;;;4.20;;
3054;SDS011;1537;52.018;8.542;2023-07-30T18:19:43;8.33;;;4.00;;
3054;SDS011;1537;52.018;8.542;2023-07-30T18:23:07;7.20;;;4.37;;
3054;SDS011;1537;52.018;8.542;2023-07-30T18:26:32;15.07;;;4.17;;
3054;SDS011;1537;52.018;8.542;2023-07-30T18:29:56;8.50;;;4.03;;
3054;SDS011;1537;52.018;8.542;2023-07-30T18:33:20;6.93;;;3.60;;
3054;SDS011;1537;52.018;8.542;2023-07-30T18:36:43;10.87;;;4.07;;
3054;SDS011;1537;52.018;8.542;2023-07-30T18:40:07;6.40;;;3.90;;
3054;SDS011;1537;52.018;8.542;2023-07-30T18:43:33;8.70;;;4.40;;
3054;SDS011;1537;52.018;8.542;2023-07-30T18:46:56;9.77;;;4.40;;
3054;SDS011;1537;52.018;8.542;2023-07-30T18:50:22;7.90;;;4.07;;
3054;SDS011;1537;52.018;8.542;2023-07-30T18:53:46;7.33;;;3.60;;
3054;SDS011;1537;52.018;8.542;2023-07-30T18:57:10;10.87;;;4.30;;
3054;SDS011;1537;52.018;8.542;2023-07-30T19:00:35;10.97;;;5.10;;
3054;SDS011;1537;52.018;8.542;2023-07-30T19:03:59;11.57;;;3.93;;
3054;SDS011;1537;52.018;8.542;2023-07-30T19:07:22;6.77;;;3.97;;
3054;SDS011;1537;52.018;8.542;2023-07-30T19:10:46;7.27;;;4.20;;
3054;SDS011;1537;52.018;8.542;2023-07-30T19:14:09;9.17;;;4.43;;
3054;SDS011;1537;52.018;8.542;2023-07-30T19:17:34;8.77;;;4.07;;
3054;SDS011;1537;52.018;8.542;2023-07-30T19:20:58;7.47;;;4.27;;
3054;SDS011;1537;52.018;8.542;2023-07-30T19:24:22;9.00;;;4.57;;
3054;SDS011;1537;52.018;8.542;2023-07-30T19:27:45;10.97;;;4.90;;
3054;SDS011;1537;52.018;8.542;2023-07-30T19:31:09;11.23;;;4.20;;
3054;SDS011;1537;52.018;8.542;2023-07-30T19:34:36;6.47;;;4.00;;
3054;SDS011;1537;52.018;8.542;2023-07-30T19:37:59;9.03;;;4.43;;
3054;SDS011;1537;52.018;8.542;2023-07-30T19:41:23;6.50;;;3.60;;
3054;SDS011;1537;52.018;8.542;2023-07-30T19:44:49;7.87;;;3.53;;
3054;SDS011;1537;52.018;8.542;2023-07-30T19:48:13;8.53;;;4.20;;
3054;SDS011;1537;52.018;8.542;2023-07-30T19:51:38;10.30;;;4.57;;
3054;SDS011;1537;52.018;8.542;2023-07-30T19:55:02;9.80;;;5.00;;
3054;SDS011;1537;52.018;8.542;2023-07-30T19:58:27;10.80;;;5.50;;
3054;SDS011;1537;52.018;8.542;2023-07-30T20:01:52;9.10;;;4.50;;
3054;SDS011;1537;52.018;8.542;2023-07-30T20:05:15;12.73;;;4.80;;
3054;SDS011;1537;52.018;8.542;2023-07-30T20:08:40;8.23;;;4.80;;
3054;SDS011;1537;52.018;8.542;2023-07-30T20:12:05;8.57;;;4.30;;
3054;SDS011;1537;52.018;8.542;2023-07-30T20:15:31;8.43;;;4.50;;
3054;SDS011;1537;52.018;8.542;2023-07-30T20:18:55;7.40;;;4.50;;
3054;SDS011;1537;52.018;8.542;2023-07-30T20:22:19;6.83;;;4.37;;
3054;SDS011;1537;52.018;8.542;2023-07-30T20:25:44;9.80;;;4.60;;
3054;SDS011;1537;52.018;8.542;2023-07-30T20:29:08;7.47;;;4.30;;
3054;SDS011;1537;52.018;8.542;2023-07-30T20:32:33;8.97;;;4.73;;
3054;SDS011;1537;52.018;8.542;2023-07-30T20:35:57;15.10;;;3.83;;
3054;SDS011;1537;52.018;8.542;2023-07-30T20:39:20;10.57;;;4.23;;
3054;SDS011;1537;52.018;8.542;2023-07-30T20:42:46;7.63;;;4.13;;
3054;SDS011;1537;52.018;8.542;2023-07-30T20:46:10;6.83;;;3.27;;
3054;SDS011;1537;52.018;8.542;2023-07-30T20:49:34;6.77;;;3.43;;
3054;SDS011;1537;52.018;8.542;2023-07-30T20:52:59;5.50;;;2.43;;
3054;SDS011;1537;52.018;8.542;2023-07-30T20:56:23;7.90;;;2.33;;